sensor_id;sensor_type;location;lat;lon;timestamp;pressure;altitude;pressure_sealevel;temperature;humidity
60874;BME280;46715;40.642;-7.920;2023-07-29T00:01:22;96354.31;;;19.56;100.00
60874;BME280;46715;40.642;-7.920;2023-07-29T00:03:23;96352.09;;;19.58;100.00
60874;BME280;46715;40.642;-7.920;2023-07-29T00:05:23;96349.13;;;19.59;100.00
60874;BME280;46715;40.642;-7.920;2023-07-29T00:07:24;96351.91;;;19.63;100.00
60874;BME280;46715;40.642;-7.920;2023-07-29T00:09:24;96355.78;;;19.66;100.00
60874;BME280;46715;40.642;-7.920;2023-07-29T00:11:25;96355.78;;;19.66;100.00
60874;BME280;46715;40.642;-7.920;2023-07-29T00:13:25;96345.84;;;19.63;100.00
60874;BME280;46715;40.642;-7.920;2023-07-29T00:15:26;96349.47;;;19.58;100.00
60874;BME280;46715;40.642;-7.920;2023-07-29T00:17:26;96349.31;;;19.54;100.00
60874;BME280;46715;40.642;-7.920;2023-07-29T00:19:27;96348.22;;;19.55;100.00
60874;BME280;46715;40.642;-7.920;2023-07-29T00:21:28;96352.44;;;19.56;100.00
60874;BME280;46715;40.642;-7.920;2023-07-29T00:23:29;96346.81;;;19.58;100.00
60874;BME280;46715;40.642;-7.920;2023-07-29T00:25:29;96337.97;;;19.54;100.00
60874;BME280;46715;40.642;-7.920;2023-07-29T00:27:30;96339.06;;;19.53;100.00
60874;BME280;46715;40.642;-7.920;2023-07-29T00:29:31;96339.72;;;19.50;100.00
60874;BME280;46715;40.642;-7.920;2023-07-29T00:31:31;96332.88;;;19.49;100.00
60874;BME280;46715;40.642;-7.920;2023-07-29T00:33:32;96328.69;;;19.48;100.00
60874;BME280;46715;40.642;-7.920;2023-07-29T00:35:33;96338.50;;;19.47;100.00
60874;BME280;46715;40.642;-7.920;2023-07-29T00:37:34;96340.69;;;19.45;100.00
60874;BME280;46715;40.642;-7.920;2023-07-29T00:39:34;96324.38;;;19.43;100.00
60874;BME280;46715;40.642;-7.920;2023-07-29T00:41:36;96329.97;;;19.41;100.00
60874;BME280;46715;40.642;-7.920;2023-07-29T00:43:36;96326.09;;;19.39;100.00
60874;BME280;46715;40.642;-7.920;2023-07-29T00:45:37;96321.13;;;19.37;100.00
60874;BME280;46715;40.642;-7.920;2023-07-29T00:47:38;96313.38;;;19.32;100.00
60874;BME280;46715;40.642;-7.920;2023-07-29T00:49:39;96317.81;;;19.28;100.00
60874;BME280;46715;40.642;-7.920;2023-07-29T00:51:40;96311.78;;;19.19;100.00
60874;BME280;46715;40.642;-7.920;2023-07-29T00:53:40;96308.88;;;19.12;100.00
60874;BME280;46715;40.642;-7.920;2023-07-29T00:55:41;96311.56;;;19.03;100.00
60874;BME280;46715;40.642;-7.920;2023-07-29T00:57:42;96301.06;;;18.94;100.00
60874;BME280;46715;40.642;-7.920;2023-07-29T00:59:48;96291.28;;;18.86;100.00
60874;BME280;46715;40.642;-7.920;2023-07-29T01:01:49;96297.97;;;18.83;100.00
60874;BME280;46715;40.642;-7.920;2023-07-29T01:03:49;96300.16;;;18.81;100.00
60874;BME280;46715;40.642;-7.920;2023-07-29T01:10:34;96293.81;;;18.73;100.00
60874;BME280;46715;40.642;-7.920;2023-07-29T01:12:50;96288.53;;;18.73;100.00
60874;BME280;46715;40.642;-7.920;2023-07-29T01:17:15;96292.78;;;18.66;100.00
60874;BME280;46715;40.642;-7.920;2023-07-29T01:21:25;96283.94;;;18.62;100.00
60874;BME280;46715;40.642;-7.920;2023-07-29T01:23:30;96287.84;;;18.55;100.00
60874;BME280;46715;40.642;-7.920;2023-07-29T01:25:32;96281.06;;;18.46;100.00
60874;BME280;46715;40.642;-7.920;2023-07-29T01:27:33;96289.47;;;18.39;100.00
60874;BME280;46715;40.642;-7.920;2023-07-29T01:29:34;96290.41;;;18.34;100.00
60874;BME280;46715;40.642;-7.920;2023-07-29T01:31:36;96281.41;;;18.35;100.00
60874;BME280;46715;40.642;-7.920;2023-07-29T01:33:48;96286.34;;;18.46;100.00
60874;BME280;46715;40.642;-7.920;2023-07-29T01:35:57;96283.84;;;18.40;100.00
60874;BME280;46715;40.642;-7.920;2023-07-29T01:38:03;96288.41;;;18.31;100.00
60874;BME280;46715;40.642;-7.920;2023-07-29T01:40:03;96281.75;;;18.25;100.00
60874;BME280;46715;40.642;-7.920;2023-07-29T01:42:07;96283.78;;;18.19;100.00
60874;BME280;46715;40.642;-7.920;2023-07-29T01:44:07;96277.78;;;18.10;100.00
60874;BME280;46715;40.642;-7.920;2023-07-29T01:46:10;96276.84;;;18.06;100.00
60874;BME280;46715;40.642;-7.920;2023-07-29T01:48:12;96279.50;;;18.06;100.00
60874;BME280;46715;40.642;-7.920;2023-07-29T01:50:13;96273.13;;;17.98;100.00
60874;BME280;46715;40.642;-7.920;2023-07-29T01:52:13;96270.66;;;17.93;100.00
60874;BME280;46715;40.642;-7.920;2023-07-29T01:54:14;96267.06;;;17.89;100.00
60874;BME280;46715;40.642;-7.920;2023-07-29T01:56:14;96263.19;;;17.86;100.00
60874;BME280;46715;40.642;-7.920;2023-07-29T01:58:24;96266.63;;;17.87;100.00
60874;BME280;46715;40.642;-7.920;2023-07-29T02:00:24;96263.19;;;17.86;100.00
60874;BME280;46715;40.642;-7.920;2023-07-29T02:02:25;96268.19;;;17.88;100.00
60874;BME280;46715;40.642;-7.920;2023-07-29T02:04:26;96258.56;;;17.92;100.00
60874;BME280;46715;40.642;-7.920;2023-07-29T02:06:26;96263.22;;;17.95;100.00
60874;BME280;46715;40.642;-7.920;2023-07-29T02:08:27;96263.22;;;17.95;100.00
60874;BME280;46715;40.642;-7.920;2023-07-29T02:10:28;96264.44;;;17.89;100.00
60874;BME280;46715;40.642;-7.920;2023-07-29T02:12:29;96254.81;;;17.84;100.00
60874;BME280;46715;40.642;-7.920;2023-07-29T02:14:29;96261.06;;;17.80;100.00
60874;BME280;46715;40.642;-7.920;2023-07-29T02:16:30;96259.03;;;17.77;100.00
60874;BME280;46715;40.642;-7.920;2023-07-29T02:18:30;96261.03;;;17.88;100.00
60874;BME280;46715;40.642;-7.920;2023-07-29T02:20:31;96262.75;;;18.02;100.00
60874;BME280;46715;40.642;-7.920;2023-07-29T02:22:31;96265.50;;;18.05;100.00
60874;BME280;46715;40.642;-7.920;2023-07-29T02:24:32;96265.97;;;18.08;100.00
60874;BME280;46715;40.642;-7.920;2023-07-29T02:26:32;96258.84;;;18.08;100.00
60874;BME280;46715;40.642;-7.920;2023-07-29T02:28:33;96268.59;;;18.16;100.00
60874;BME280;46715;40.642;-7.920;2023-07-29T02:30:34;96264.81;;;18.26;100.00
60874;BME280;46715;40.642;-7.920;2023-07-29T02:32:34;96256.41;;;18.33;100.00
60874;BME280;46715;40.642;-7.920;2023-07-29T02:34:35;96259.34;;;18.40;100.00
60874;BME280;46715;40.642;-7.920;2023-07-29T02:36:35;96254.59;;;18.54;100.00
60874;BME280;46715;40.642;-7.920;2023-07-29T02:38:37;96256.72;;;18.70;100.00
60874;BME280;46715;40.642;-7.920;2023-07-29T02:40:38;96252.34;;;18.74;100.00
60874;BME280;46715;40.642;-7.920;2023-07-29T02:42:40;96241.25;;;18.89;100.00
60874;BME280;46715;40.642;-7.920;2023-07-29T02:44:40;96253.94;;;18.96;100.00
60874;BME280;46715;40.642;-7.920;2023-07-29T02:46:41;96253.50;;;18.94;100.00
60874;BME280;46715;40.642;-7.920;2023-07-29T02:48:42;96243.06;;;18.98;100.00
60874;BME280;46715;40.642;-7.920;2023-07-29T02:50:43;96251.91;;;19.02;100.00
60874;BME280;46715;40.642;-7.920;2023-07-29T02:52:43;96253.88;;;19.05;100.00
60874;BME280;46715;40.642;-7.920;2023-07-29T02:54:44;96250.41;;;19.13;100.00
60874;BME280;46715;40.642;-7.920;2023-07-29T02:56:44;96258.03;;;19.15;100.00
60874;BME280;46715;40.642;-7.920;2023-07-29T02:58:45;96258.91;;;19.19;100.00
60874;BME280;46715;40.642;-7.920;2023-07-29T03:00:45;96254.53;;;19.23;100.00
60874;BME280;46715;40.642;-7.920;2023-07-29T03:02:49;96258.75;;;19.24;100.00
60874;BME280;46715;40.642;-7.920;2023-07-29T03:04:50;96252.78;;;19.27;100.00
60874;BME280;46715;40.642;-7.920;2023-07-29T03:06:50;96257.44;;;19.30;100.00
60874;BME280;46715;40.642;-7.920;2023-07-29T03:08:51;96253.94;;;19.38;100.00
60874;BME280;46715;40.642;-7.920;2023-07-29T03:10:52;96258.59;;;19.41;100.00
60874;BME280;46715;40.642;-7.920;2023-07-29T03:12:55;96246.00;;;19.38;100.00
60874;BME280;46715;40.642;-7.920;2023-07-29T03:14:56;96239.97;;;19.38;100.00
60874;BME280;46715;40.642;-7.920;2023-07-29T03:16:56;96245.78;;;19.31;100.00
60874;BME280;46715;40.642;-7.920;2023-07-29T03:18:58;96245.63;;;19.28;100.00
60874;BME280;46715;40.642;-7.920;2023-07-29T03:21:01;96249.38;;;19.27;100.00
60874;BME280;46715;40.642;-7.920;2023-07-29T03:23:02;96242.88;;;19.24;100.00
60874;BME280;46715;40.642;-7.920;2023-07-29T03:25:03;96244.66;;;19.32;100.00
60874;BME280;46715;40.642;-7.920;2023-07-29T03:27:06;96235.97;;;19.32;100.00
60874;BME280;46715;40.642;-7.920;2023-07-29T03:29:07;96238.94;;;19.30;100.00
60874;BME280;46715;40.642;-7.920;2023-07-29T03:31:07;96237.69;;;19.28;100.00
60874;BME280;46715;40.642;-7.920;2023-07-29T03:33:08;96235.25;;;19.22;100.00
60874;BME280;46715;40.642;-7.920;2023-07-29T03:35:09;96229.53;;;19.20;100.00
60874;BME280;46715;40.642;-7.920;2023-07-29T03:37:09;96218.94;;;19.20;100.00
60874;BME280;46715;40.642;-7.920;2023-07-29T03:39:10;96230.16;;;19.17;100.00
60874;BME280;46715;40.642;-7.920;2023-07-29T03:41:11;96221.66;;;19.12;100.00
60874;BME280;46715;40.642;-7.920;2023-07-29T03:43:11;96221.84;;;19.06;100.00
60874;BME280;46715;40.642;-7.920;2023-07-29T03:45:12;96219.34;;;19.10;100.00
60874;BME280;46715;40.642;-7.920;2023-07-29T03:47:13;96214.44;;;19.00;100.00
60874;BME280;46715;40.642;-7.920;2023-07-29T03:49:16;96219.00;;;18.90;100.00
60874;BME280;46715;40.642;-7.920;2023-07-29T03:51:16;96214.03;;;18.89;100.00
60874;BME280;46715;40.642;-7.920;2023-07-29T03:53:17;96218.84;;;18.87;100.00
60874;BME280;46715;40.642;-7.920;2023-07-29T03:55:18;96214.84;;;18.89;100.00
60874;BME280;46715;40.642;-7.920;2023-07-29T03:57:18;96212.63;;;18.91;100.00
60874;BME280;46715;40.642;-7.920;2023-07-29T03:59:19;96210.13;;;18.95;100.00
60874;BME280;46715;40.642;-7.920;2023-07-29T04:01:19;96220.22;;;18.93;100.00
60874;BME280;46715;40.642;-7.920;2023-07-29T04:03:20;96221.13;;;18.97;100.00
60874;BME280;46715;40.642;-7.920;2023-07-29T04:05:22;96216.94;;;18.96;100.00
60874;BME280;46715;40.642;-7.920;2023-07-29T04:07:23;96221.47;;;18.96;100.00
60874;BME280;46715;40.642;-7.920;2023-07-29T04:09:24;96226.75;;;18.96;100.00
60874;BME280;46715;40.642;-7.920;2023-07-29T04:11:24;96230.03;;;18.93;100.00
60874;BME280;46715;40.642;-7.920;2023-07-29T04:13:26;96221.97;;;18.89;100.00
60874;BME280;46715;40.642;-7.920;2023-07-29T04:15:26;96226.31;;;18.85;100.00
60874;BME280;46715;40.642;-7.920;2023-07-29T04:17:27;96226.53;;;18.80;100.00
60874;BME280;46715;40.642;-7.920;2023-07-29T04:19:27;96224.50;;;18.77;100.00
60874;BME280;46715;40.642;-7.920;2023-07-29T04:21:28;96226.22;;;18.72;100.00
60874;BME280;46715;40.642;-7.920;2023-07-29T04:23:28;96216.78;;;18.71;100.00
60874;BME280;46715;40.642;-7.920;2023-07-29T04:25:29;96216.78;;;18.71;100.00
60874;BME280;46715;40.642;-7.920;2023-07-29T04:27:29;96219.22;;;18.77;100.00
60874;BME280;46715;40.642;-7.920;2023-07-29T04:29:30;96229.28;;;18.83;100.00
60874;BME280;46715;40.642;-7.920;2023-07-29T04:31:30;96227.50;;;18.96;100.00
60874;BME280;46715;40.642;-7.920;2023-07-29T04:33:31;96223.13;;;19.00;100.00
60874;BME280;46715;40.642;-7.920;2023-07-29T04:35:31;96219.47;;;18.93;100.00
60874;BME280;46715;40.642;-7.920;2023-07-29T04:37:32;96219.31;;;18.89;100.00
60874;BME280;46715;40.642;-7.920;2023-07-29T04:39:32;96222.59;;;18.86;100.00
60874;BME280;46715;40.642;-7.920;2023-07-29T04:41:33;96225.88;;;18.83;100.00
60874;BME280;46715;40.642;-7.920;2023-07-29T04:43:34;96222.44;;;18.82;100.00
60874;BME280;46715;40.642;-7.920;2023-07-29T04:45:34;96219.03;;;18.82;100.00
60874;BME280;46715;40.642;-7.920;2023-07-29T04:47:35;96234.44;;;18.80;100.00
60874;BME280;46715;40.642;-7.920;2023-07-29T04:49:35;96226.53;;;18.80;100.00
60874;BME280;46715;40.642;-7.920;2023-07-29T04:51:36;96223.09;;;18.79;100.00
60874;BME280;46715;40.642;-7.920;2023-07-29T04:53:40;96236.28;;;18.79;100.00
60874;BME280;46715;40.642;-7.920;2023-07-29T04:55:41;96223.41;;;18.78;100.00
60874;BME280;46715;40.642;-7.920;2023-07-29T04:57:42;96236.94;;;18.76;100.00
60874;BME280;46715;40.642;-7.920;2023-07-29T04:59:43;96230.44;;;18.73;100.00
60874;BME280;46715;40.642;-7.920;2023-07-29T05:01:44;96234.78;;;18.78;100.00
60874;BME280;46715;40.642;-7.920;2023-07-29T05:03:44;96240.06;;;18.78;100.00
60874;BME280;46715;40.642;-7.920;2023-07-29T05:05:46;96239.72;;;18.80;100.00
60874;BME280;46715;40.642;-7.920;2023-07-29T05:07:47;96235.97;;;18.81;100.00
60874;BME280;46715;40.642;-7.920;2023-07-29T05:09:48;96238.19;;;18.79;100.00
60874;BME280;46715;40.642;-7.920;2023-07-29T05:11:49;96239.72;;;18.80;100.00
60874;BME280;46715;40.642;-7.920;2023-07-29T05:13:49;96237.84;;;18.80;100.00
60874;BME280;46715;40.642;-7.920;2023-07-29T05:15:50;96247.66;;;18.80;100.00
60874;BME280;46715;40.642;-7.920;2023-07-29T05:17:50;96232.25;;;18.82;100.00
60874;BME280;46715;40.642;-7.920;2023-07-29T05:19:51;96241.72;;;18.83;100.00
60874;BME280;46715;40.642;-7.920;2023-07-29T05:21:51;96250.88;;;18.85;100.00
60874;BME280;46715;40.642;-7.920;2023-07-29T05:23:52;96243.72;;;18.86;100.00
60874;BME280;46715;40.642;-7.920;2023-07-29T05:25:52;96245.41;;;18.90;100.00
60874;BME280;46715;40.642;-7.920;2023-07-29T05:27:53;96244.00;;;18.93;100.00
60874;BME280;46715;40.642;-7.920;2023-07-29T05:29:53;96238.88;;;18.97;100.00
60874;BME280;46715;40.642;-7.920;2023-07-29T05:31:54;96242.75;;;18.99;100.00
60874;BME280;46715;40.642;-7.920;2023-07-29T05:33:54;96248.94;;;19.03;100.00
60874;BME280;46715;40.642;-7.920;2023-07-29T05:35:55;96250.59;;;19.08;100.00
60874;BME280;46715;40.642;-7.920;2023-07-29T05:37:56;96249.19;;;19.11;100.00
60874;BME280;46715;40.642;-7.920;2023-07-29T05:39:56;96247.31;;;19.11;100.00
60874;BME280;46715;40.642;-7.920;2023-07-29T05:41:57;96246.97;;;19.13;100.00
60874;BME280;46715;40.642;-7.920;2023-07-29T05:43:58;96241.69;;;19.13;100.00
60874;BME280;46715;40.642;-7.920;2023-07-29T05:45:59;96246.53;;;19.11;100.00
60874;BME280;46715;40.642;-7.920;2023-07-29T05:47:59;96248.72;;;19.08;100.00
60874;BME280;46715;40.642;-7.920;2023-07-29T05:50:00;96247.06;;;19.04;100.00
60874;BME280;46715;40.642;-7.920;2023-07-29T05:52:04;96251.44;;;19.00;100.00
60874;BME280;46715;40.642;-7.920;2023-07-29T05:54:05;96247.75;;;18.92;100.00
60874;BME280;46715;40.642;-7.920;2023-07-29T05:56:05;96257.69;;;18.86;100.00
60874;BME280;46715;40.642;-7.920;2023-07-29T05:58:06;96260.22;;;18.83;100.00
60874;BME280;46715;40.642;-7.920;2023-07-29T06:00:07;96255.56;;;18.80;100.00
60874;BME280;46715;40.642;-7.920;2023-07-29T06:02:13;96260.28;;;18.74;100.00
60874;BME280;46715;40.642;-7.920;2023-07-29T06:04:13;96259.38;;;18.70;100.00
60874;BME280;46715;40.642;-7.920;2023-07-29T06:06:14;96262.63;;;18.67;100.00
60874;BME280;46715;40.642;-7.920;2023-07-29T06:08:14;96262.50;;;18.63;100.00
60874;BME280;46715;40.642;-7.920;2023-07-29T06:10:15;96268.09;;;18.62;100.00
60874;BME280;46715;40.642;-7.920;2023-07-29T06:12:19;96273.72;;;18.60;100.00
60874;BME280;46715;40.642;-7.920;2023-07-29T06:14:20;96274.16;;;18.62;100.00
60874;BME280;46715;40.642;-7.920;2023-07-29T06:16:21;96278.63;;;18.70;100.00
60874;BME280;46715;40.642;-7.920;2023-07-29T06:18:22;96278.25;;;18.81;100.00
60874;BME280;46715;40.642;-7.920;2023-07-29T06:20:23;96282.22;;;18.96;100.00
60874;BME280;46715;40.642;-7.920;2023-07-29T06:22:24;96286.94;;;19.11;100.00
60874;BME280;46715;40.642;-7.920;2023-07-29T06:24:25;96284.72;;;19.22;100.00
60874;BME280;46715;40.642;-7.920;2023-07-29T06:26:25;96283.88;;;19.30;100.00
60874;BME280;46715;40.642;-7.920;2023-07-29T06:28:26;96284.84;;;19.47;100.00
60874;BME280;46715;40.642;-7.920;2023-07-29T06:30:26;96284.25;;;19.62;100.00
60874;BME280;46715;40.642;-7.920;2023-07-29T06:32:27;96287.66;;;19.84;100.00
60874;BME280;46715;40.642;-7.920;2023-07-29T06:34:27;96288.69;;;20.04;100.00
60874;BME280;46715;40.642;-7.920;2023-07-29T06:36:28;96287.00;;;20.33;100.00
60874;BME280;46715;40.642;-7.920;2023-07-29T06:38:29;96284.16;;;20.75;100.00
60874;BME280;46715;40.642;-7.920;2023-07-29T06:40:29;96283.44;;;21.15;100.00
60874;BME280;46715;40.642;-7.920;2023-07-29T06:42:30;96282.13;;;21.50;100.00
60874;BME280;46715;40.642;-7.920;2023-07-29T06:44:30;96287.47;;;21.78;100.00
60874;BME280;46715;40.642;-7.920;2023-07-29T06:46:31;96292.66;;;22.03;100.00
60874;BME280;46715;40.642;-7.920;2023-07-29T06:48:31;96298.06;;;22.22;100.00
60874;BME280;46715;40.642;-7.920;2023-07-29T06:50:32;96286.84;;;22.29;100.00
60874;BME280;46715;40.642;-7.920;2023-07-29T06:52:32;96294.06;;;22.28;100.00
60874;BME280;46715;40.642;-7.920;2023-07-29T06:54:33;96289.38;;;22.38;100.00
60874;BME280;46715;40.642;-7.920;2023-07-29T06:56:34;96289.97;;;22.47;100.00
60874;BME280;46715;40.642;-7.920;2023-07-29T06:58:34;96295.69;;;22.33;99.38
60874;BME280;46715;40.642;-7.920;2023-07-29T07:00:35;96293.88;;;22.21;99.32
60874;BME280;46715;40.642;-7.920;2023-07-29T07:02:35;96293.22;;;22.40;97.01
60874;BME280;46715;40.642;-7.920;2023-07-29T07:04:36;96293.72;;;22.30;96.89
60874;BME280;46715;40.642;-7.920;2023-07-29T07:06:36;96298.59;;;22.12;98.10
60874;BME280;46715;40.642;-7.920;2023-07-29T07:08:37;96303.13;;;22.11;98.85
60874;BME280;46715;40.642;-7.920;2023-07-29T07:10:40;96302.78;;;22.13;99.08
60874;BME280;46715;40.642;-7.920;2023-07-29T07:12:40;96307.06;;;22.18;98.73
60874;BME280;46715;40.642;-7.920;2023-07-29T07:14:41;96309.72;;;22.18;98.79
60874;BME280;46715;40.642;-7.920;2023-07-29T07:16:41;96314.78;;;22.23;98.21
60874;BME280;46715;40.642;-7.920;2023-07-29T07:18:42;96313.88;;;22.31;98.09
60874;BME280;46715;40.642;-7.920;2023-07-29T07:20:42;96318.78;;;22.45;96.86
60874;BME280;46715;40.642;-7.920;2023-07-29T07:22:43;96315.94;;;22.54;95.41
60874;BME280;46715;40.642;-7.920;2023-07-29T07:24:44;96317.13;;;22.72;95.40
60874;BME280;46715;40.642;-7.920;2023-07-29T07:26:44;96316.63;;;22.83;93.49
60874;BME280;46715;40.642;-7.920;2023-07-29T07:28:45;96317.31;;;22.79;93.83
60874;BME280;46715;40.642;-7.920;2023-07-29T07:30:45;96316.69;;;22.86;92.12
60874;BME280;46715;40.642;-7.920;2023-07-29T07:32:46;96318.81;;;22.96;92.23
60874;BME280;46715;40.642;-7.920;2023-07-29T07:34:46;96323.69;;;23.10;89.46
60874;BME280;46715;40.642;-7.920;2023-07-29T07:36:47;96322.91;;;23.10;89.71
60874;BME280;46715;40.642;-7.920;2023-07-29T07:38:47;96324.44;;;23.27;88.17
60874;BME280;46715;40.642;-7.920;2023-07-29T07:40:54;96329.97;;;23.02;89.53
60874;BME280;46715;40.642;-7.920;2023-07-29T07:42:55;96327.31;;;22.86;90.81
60874;BME280;46715;40.642;-7.920;2023-07-29T07:44:55;96334.13;;;22.68;91.39
60874;BME280;46715;40.642;-7.920;2023-07-29T07:46:57;96333.34;;;22.83;90.96
60874;BME280;46715;40.642;-7.920;2023-07-29T07:48:57;96335.56;;;23.13;90.27
60874;BME280;46715;40.642;-7.920;2023-07-29T07:50:58;96330.50;;;23.63;89.13
60874;BME280;46715;40.642;-7.920;2023-07-29T07:52:58;96323.28;;;24.95;84.28
60874;BME280;46715;40.642;-7.920;2023-07-29T07:54:58;96320.53;;;26.13;75.73
60874;BME280;46715;40.642;-7.920;2023-07-29T07:56:59;96320.88;;;26.49;71.04
60874;BME280;46715;40.642;-7.920;2023-07-29T07:58:59;96319.31;;;26.45;68.59
60874;BME280;46715;40.642;-7.920;2023-07-29T08:01:00;96318.78;;;26.69;68.11
60874;BME280;46715;40.642;-7.920;2023-07-29T08:03:01;96322.47;;;26.58;66.61
60874;BME280;46715;40.642;-7.920;2023-07-29T08:05:01;96333.00;;;26.40;66.87
60874;BME280;46715;40.642;-7.920;2023-07-29T08:07:02;96327.06;;;26.16;69.00
60874;BME280;46715;40.642;-7.920;2023-07-29T08:09:02;96324.19;;;25.64;71.53
60874;BME280;46715;40.642;-7.920;2023-07-29T08:11:03;96334.97;;;25.41;74.17
60874;BME280;46715;40.642;-7.920;2023-07-29T08:13:04;96339.19;;;24.88;76.26
60874;BME280;46715;40.642;-7.920;2023-07-29T08:15:04;96340.75;;;24.66;77.99
60874;BME280;46715;40.642;-7.920;2023-07-29T08:17:05;96339.38;;;24.76;78.24
60874;BME280;46715;40.642;-7.920;2023-07-29T08:19:06;96347.00;;;24.54;78.58
60874;BME280;46715;40.642;-7.920;2023-07-29T08:21:07;96344.69;;;24.52;78.30
60874;BME280;46715;40.642;-7.920;2023-07-29T08:23:07;96344.91;;;24.21;79.65
60874;BME280;46715;40.642;-7.920;2023-07-29T08:25:08;96349.41;;;24.16;80.63
60874;BME280;46715;40.642;-7.920;2023-07-29T08:27:08;96357.63;;;24.08;82.23
60874;BME280;46715;40.642;-7.920;2023-07-29T08:29:09;96351.59;;;24.11;83.37
60874;BME280;46715;40.642;-7.920;2023-07-29T08:31:09;96353.53;;;24.14;nan
60874;BME280;46715;40.642;-7.920;2023-07-29T08:33:10;96355.47;;;23.94;84.17
60874;BME280;46715;40.642;-7.920;2023-07-29T08:35:10;96355.56;;;23.81;84.63
60874;BME280;46715;40.642;-7.920;2023-07-29T08:37:11;96355.00;;;23.72;84.89
60874;BME280;46715;40.642;-7.920;2023-07-29T08:39:11;96351.69;;;23.95;84.40
60874;BME280;46715;40.642;-7.920;2023-07-29T08:43:15;96347.28;;;24.68;80.16
60874;BME280;46715;40.642;-7.920;2023-07-29T08:45:17;96340.06;;;25.23;77.27
60874;BME280;46715;40.642;-7.920;2023-07-29T08:47:17;96330.09;;;26.14;72.25
60874;BME280;46715;40.642;-7.920;2023-07-29T08:49:18;96333.78;;;27.48;67.11
60874;BME280;46715;40.642;-7.920;2023-07-29T08:51:19;96324.81;;;29.04;60.77
60874;BME280;46715;40.642;-7.920;2023-07-29T08:53:19;96315.69;;;30.57;55.15
60874;BME280;46715;40.642;-7.920;2023-07-29T08:55:20;96323.91;;;30.84;53.12
60874;BME280;46715;40.642;-7.920;2023-07-29T08:57:21;96323.31;;;30.66;52.90
60874;BME280;46715;40.642;-7.920;2023-07-29T08:59:22;96322.19;;;31.05;52.03
60874;BME280;46715;40.642;-7.920;2023-07-29T09:01:23;96323.72;;;30.60;52.45
60874;BME280;46715;40.642;-7.920;2023-07-29T09:03:24;96328.34;;;30.60;52.54
60874;BME280;46715;40.642;-7.920;2023-07-29T09:05:25;96330.19;;;31.12;51.11
60874;BME280;46715;40.642;-7.920;2023-07-29T09:07:25;96320.03;;;31.92;48.70
60874;BME280;46715;40.642;-7.920;2023-07-29T09:09:26;96316.97;;;32.92;46.20
60874;BME280;46715;40.642;-7.920;2023-07-29T09:11:27;96320.56;;;33.50;45.08
60874;BME280;46715;40.642;-7.920;2023-07-29T09:13:27;96320.50;;;34.26;43.13
60874;BME280;46715;40.642;-7.920;2023-07-29T09:15:29;96316.53;;;33.78;43.31
60874;BME280;46715;40.642;-7.920;2023-07-29T09:17:33;96320.75;;;32.99;45.19
60874;BME280;46715;40.642;-7.920;2023-07-29T09:19:33;96323.09;;;31.94;47.49
60874;BME280;46715;40.642;-7.920;2023-07-29T09:21:34;96318.75;;;31.01;49.52
60874;BME280;46715;40.642;-7.920;2023-07-29T09:23:41;96333.63;;;30.15;51.69
60874;BME280;46715;40.642;-7.920;2023-07-29T09:25:42;96321.28;;;29.47;54.49
60874;BME280;46715;40.642;-7.920;2023-07-29T09:27:46;96330.72;;;29.87;53.63
60874;BME280;46715;40.642;-7.920;2023-07-29T09:29:46;96327.72;;;29.71;53.61
60874;BME280;46715;40.642;-7.920;2023-07-29T09:31:47;96336.31;;;29.19;54.78
60874;BME280;46715;40.642;-7.920;2023-07-29T09:33:48;96332.50;;;28.44;57.70
60874;BME280;46715;40.642;-7.920;2023-07-29T09:35:48;96336.03;;;27.38;61.82
60874;BME280;46715;40.642;-7.920;2023-07-29T09:37:50;96337.38;;;27.07;63.48
60874;BME280;46715;40.642;-7.920;2023-07-29T09:39:51;96342.59;;;26.93;64.98
60874;BME280;46715;40.642;-7.920;2023-07-29T09:41:51;96343.91;;;27.98;61.82
60874;BME280;46715;40.642;-7.920;2023-07-29T09:43:56;96329.41;;;29.25;56.05
60874;BME280;46715;40.642;-7.920;2023-07-29T09:46:02;96332.94;;;30.00;53.76
60874;BME280;46715;40.642;-7.920;2023-07-29T09:48:04;96327.94;;;30.62;51.97
60874;BME280;46715;40.642;-7.920;2023-07-29T09:50:10;96327.88;;;30.72;51.54
60874;BME280;46715;40.642;-7.920;2023-07-29T09:52:11;96328.88;;;29.66;54.26
60874;BME280;46715;40.642;-7.920;2023-07-29T09:54:12;96323.66;;;29.12;55.97
60874;BME280;46715;40.642;-7.920;2023-07-29T09:56:15;96343.28;;;28.66;58.39
60874;BME280;46715;40.642;-7.920;2023-07-29T09:58:19;96340.88;;;28.14;60.15
60874;BME280;46715;40.642;-7.920;2023-07-29T10:00:20;96346.94;;;27.85;61.61
60874;BME280;46715;40.642;-7.920;2023-07-29T10:02:21;96347.84;;;29.01;59.97
60874;BME280;46715;40.642;-7.920;2023-07-29T10:04:22;96339.81;;;30.08;53.28
60874;BME280;46715;40.642;-7.920;2023-07-29T10:06:23;96344.16;;;29.87;53.99
60874;BME280;46715;40.642;-7.920;2023-07-29T10:08:25;96348.72;;;29.98;53.90
60874;BME280;46715;40.642;-7.920;2023-07-29T10:10:26;96349.97;;;29.68;53.93
60874;BME280;46715;40.642;-7.920;2023-07-29T10:12:28;96340.53;;;29.27;56.20
60874;BME280;46715;40.642;-7.920;2023-07-29T10:14:29;96344.41;;;28.83;57.36
60874;BME280;46715;40.642;-7.920;2023-07-29T10:16:31;96356.66;;;28.40;58.39
60874;BME280;46715;40.642;-7.920;2023-07-29T10:18:32;96357.94;;;27.62;60.70
60874;BME280;46715;40.642;-7.920;2023-07-29T10:20:33;96347.78;;;28.15;60.43
60874;BME280;46715;40.642;-7.920;2023-07-29T10:22:38;96353.22;;;28.76;57.98
60874;BME280;46715;40.642;-7.920;2023-07-29T10:24:39;96347.44;;;29.10;56.31
60874;BME280;46715;40.642;-7.920;2023-07-29T10:26:43;96338.41;;;29.82;55.11
60874;BME280;46715;40.642;-7.920;2023-07-29T10:28:53;96339.69;;;30.82;51.49
60874;BME280;46715;40.642;-7.920;2023-07-29T10:30:59;96343.06;;;30.41;52.19
60874;BME280;46715;40.642;-7.920;2023-07-29T10:33:01;96343.28;;;30.08;52.67
60874;BME280;46715;40.642;-7.920;2023-07-29T10:35:02;96345.47;;;29.39;54.88
60874;BME280;46715;40.642;-7.920;2023-07-29T10:37:03;96340.69;;;29.90;53.74
60874;BME280;46715;40.642;-7.920;2023-07-29T10:39:04;96341.75;;;30.64;52.53